Time;durP1;ratioP1;P1;durP2;ratioP2;P2;SDS_P1;SDS_P2;PMS_P1;PMS_P2;Temp;Humidity;BMP_temperature;BMP_pressure;BME280_temperature;BME280_humidity;BME280_pressure;Samples;Min_cycle;Max_cycle;Signal;HPM_P1;HPM_P2
2023/08/31 00:00:35;;;;;;;4.82;4.07;;;11.70;99.90;;;;;;2063352;28;20293;-67
2023/08/31 00:01:37;;;;;;;7.38;4.18;;;11.60;99.90;;;;;;2063467;28;20234;-68
2023/08/31 00:02:40;;;;;;;6.25;4.40;;;11.70;99.90;;;;;;2063096;28;20284;-68
2023/08/31 00:03:41;;;;;;;6.88;4.40;;;11.80;99.90;;;;;;2063541;28;20229;-68
2023/08/31 00:04:41;;;;;;;7.63;4.23;;;11.90;99.90;;;;;;2055332;28;20736;-68
2023/08/31 00:05:43;;;;;;;8.30;5.07;;;11.90;99.90;;;;;;2054939;28;20305;-67
2023/08/31 00:06:46;;;;;;;7.47;4.60;;;12.00;99.90;;;;;;2055294;28;20253;-68
2023/08/31 00:07:47;;;;;;;6.68;4.60;;;11.90;99.90;;;;;;2063550;28;20687;-68
2023/08/31 00:08:48;;;;;;;7.60;4.20;;;11.80;99.90;;;;;;2063988;28;20240;-68
2023/08/31 00:09:49;;;;;;;6.23;4.13;;;11.90;99.90;;;;;;2063478;28;20264;-68
2023/08/31 00:10:58;;;;;;;8.35;5.18;;;11.80;99.90;;;;;;2055330;28;20238;-67
2023/08/31 00:12:02;;;;;;;5.72;3.90;;;11.60;99.90;;;;;;2048462;28;20238;-68
2023/08/31 00:13:04;;;;;;;6.70;5.07;;;11.70;99.90;;;;;;2054957;28;20663;-68
2023/08/31 00:14:05;;;;;;;7.65;4.80;;;11.70;99.90;;;;;;2063550;28;20186;-68
2023/08/31 00:15:08;;;;;;;7.40;4.70;;;11.70;99.90;;;;;;2054976;28;20573;-68
2023/08/31 00:16:10;;;;;;;7.60;4.80;;;11.80;99.90;;;;;;2063641;28;20190;-68
2023/08/31 00:17:11;;;;;;;9.82;5.75;;;11.80;99.90;;;;;;2062905;28;20190;-69
2023/08/31 00:18:12;;;;;;;7.70;5.80;;;11.80;99.90;;;;;;2064159;28;20186;-67
2023/08/31 00:19:14;;;;;;;7.20;5.13;;;11.90;99.90;;;;;;2060612;28;20206;-68
2023/08/31 00:20:15;;;;;;;10.80;5.75;;;11.90;99.90;;;;;;2063120;28;20190;-67
2023/08/31 00:21:16;;;;;;;9.23;5.63;;;11.90;99.90;;;;;;2062902;28;20206;-68
2023/08/31 00:22:16;;;;;;;6.93;5.40;;;11.90;99.90;;;;;;2061924;28;20562;-68
2023/08/31 00:23:18;;;;;;;6.43;5.40;;;11.90;99.90;;;;;;2062152;28;20182;-68
2023/08/31 00:24:21;;;;;;;8.75;5.70;;;12.00;99.90;;;;;;2062860;28;20213;-68
2023/08/31 00:25:22;;;;;;;8.25;5.43;;;12.00;99.90;;;;;;2063974;28;20304;-68
2023/08/31 00:26:23;;;;;;;5.87;4.67;;;11.90;99.90;;;;;;2063556;28;20226;-68
2023/08/31 00:27:23;;;;;;;7.50;5.33;;;11.90;99.90;;;;;;2055912;28;20231;-68
2023/08/31 00:28:25;;;;;;;6.60;5.20;;;12.00;99.90;;;;;;2056002;28;20231;-68
2023/08/31 00:29:26;;;;;;;9.05;5.40;;;12.00;99.90;;;;;;2063384;28;20225;-68
2023/08/31 00:30:29;;;;;;;6.78;4.85;;;12.00;99.90;;;;;;2063348;28;20221;-68
2023/08/31 00:31:30;;;;;;;6.63;5.28;;;11.90;99.90;;;;;;2063100;28;20730;-68
2023/08/31 00:32:33;;;;;;;6.72;4.47;;;11.90;99.90;;;;;;2063499;28;20624;-68
2023/08/31 00:33:34;;;;;;;7.13;4.82;;;11.80;99.90;;;;;;2063541;28;20222;-68
2023/08/31 00:34:35;;;;;;;7.82;5.00;;;11.80;99.90;;;;;;2060221;28;20725;-68
2023/08/31 00:35:36;;;;;;;5.33;4.60;;;11.80;99.90;;;;;;2062637;28;20241;-68
2023/08/31 00:36:38;;;;;;;5.30;4.80;;;11.70;99.90;;;;;;2055160;28;20238;-68
2023/08/31 00:37:38;;;;;;;5.40;4.90;;;11.70;99.90;;;;;;2047192;28;20238;-68
2023/08/31 00:38:39;;;;;;;6.20;5.07;;;11.70;99.90;;;;;;2047505;28;20795;-68
2023/08/31 00:39:40;;;;;;;6.90;4.83;;;11.70;99.90;;;;;;2069817;28;20312;-68
2023/08/31 00:40:44;;;;;;;6.67;4.97;;;11.70;99.90;;;;;;2062538;28;20677;-68
2023/08/31 00:41:45;;;;;;;6.22;5.00;;;11.80;99.90;;;;;;2052814;28;20309;-68
2023/08/31 00:42:46;;;;;;;10.57;5.10;;;11.80;99.90;;;;;;2066729;28;20733;-68
2023/08/31 00:43:47;;;;;;;6.65;5.43;;;11.80;99.90;;;;;;2062982;28;20225;-68
2023/08/31 00:44:48;;;;;;;9.43;5.50;;;11.80;99.90;;;;;;2054922;28;20715;-68
2023/08/31 00:45:52;;;;;;;9.85;5.90;;;11.90;99.90;;;;;;2062672;28;20526;-68
2023/08/31 00:46:54;;;;;;;9.05;5.18;;;11.90;99.90;;;;;;2070159;28;20631;-68
2023/08/31 00:47:57;;;;;;;9.85;5.57;;;12.00;99.90;;;;;;2070939;28;20356;-68
2023/08/31 00:48:58;;;;;;;7.57;5.47;;;12.00;99.90;;;;;;2063908;28;20226;-68
2023/08/31 00:50:00;;;;;;;7.95;5.28;;;11.90;99.90;;;;;;2061226;28;20237;-68
2023/08/31 00:51:01;;;;;;;7.10;5.45;;;11.90;99.90;;;;;;2070682;28;20292;-68
2023/08/31 00:52:02;;;;;;;9.93;5.20;;;12.00;99.90;;;;;;2060996;28;20284;-69
2023/08/31 00:53:04;;;;;;;6.78;4.65;;;11.90;99.90;;;;;;2047329;28;20637;-68
2023/08/31 00:54:05;;;;;;;9.32;6.30;;;11.90;99.90;;;;;;2051064;28;20241;-69
2023/08/31 00:55:08;;;;;;;9.55;5.88;;;12.00;99.90;;;;;;2062342;28;20186;-66
2023/08/31 00:56:09;;;;;;;6.35;5.22;;;12.00;99.90;;;;;;2067155;28;20189;-66
2023/08/31 00:57:09;;;;;;;8.53;5.83;;;12.10;99.90;;;;;;2063600;28;20733;-66
2023/08/31 00:58:10;;;;;;;12.07;6.10;;;12.00;99.90;;;;;;2070312;28;20201;-67
2023/08/31 00:59:11;;;;;;;8.10;5.30;;;12.00;99.90;;;;;;2059813;28;20273;-67
2023/08/31 01:00:13;;;;;;;7.17;6.10;;;12.10;99.90;;;;;;2063282;28;20233;-67
2023/08/31 01:01:37;;;;;;;8.60;6.10;;;12.10;99.90;;;;;;2062747;28;20214;-67
2023/08/31 01:03:01;;;;;;;8.10;6.50;;;12.10;99.90;;;;;;2062018;28;20662;-66
2023/08/31 01:04:15;;;;;;;8.85;6.00;;;12.20;99.90;;;;;;2055706;28;20238;-66
2023/08/31 01:05:28;;;;;;;9.85;6.20;;;12.10;99.90;;;;;;2058165;28;20293;-67
2023/08/31 01:07:02;;;;;;;8.73;5.90;;;12.10;99.90;;;;;;2061249;28;20226;-66
2023/08/31 01:08:33;;;;;;;9.45;6.38;;;12.10;99.90;;;;;;2026237;28;20218;-66
2023/08/31 01:10:27;;;;;;;9.27;6.20;;;12.10;99.90;;;;;;2055748;28;20223;-66
2023/08/31 01:11:46;;;;;;;8.65;5.90;;;12.10;99.90;;;;;;2042773;28;20223;-66
2023/08/31 01:12:53;;;;;;;9.75;6.38;;;11.90;99.90;;;;;;2060172;28;20225;-66
2023/08/31 01:14:04;;;;;;;7.18;6.05;;;11.90;99.90;;;;;;2069563;28;20811;-66
2023/08/31 01:15:10;;;;;;;9.85;6.88;;;11.90;99.90;;;;;;2064934;28;20214;-66
2023/08/31 01:16:12;;;;;;;10.20;6.53;;;11.80;99.90;;;;;;2062648;28;20186;-67
2023/08/31 01:17:15;;;;;;;8.43;7.10;;;11.80;99.90;;;;;;2063159;28;20217;-67
2023/08/31 01:18:18;;;;;;;7.93;6.72;;;11.70;99.90;;;;;;2052949;28;20209;-66
2023/08/31 01:19:50;;;;;;;8.82;7.00;;;11.70;99.90;;;;;;2054257;28;20667;-66
2023/08/31 01:21:24;;;;;;;9.02;6.03;;;11.70;99.90;;;;;;2054944;28;20252;-66
2023/08/31 01:22:30;;;;;;;9.57;6.25;;;11.50;99.90;;;;;;2062749;28;20252;-66
2023/08/31 01:23:55;;;;;;;8.38;5.45;;;11.50;99.90;;;;;;2064660;28;20230;-66
2023/08/31 01:24:57;;;;;;;8.18;5.90;;;11.50;99.90;;;;;;2054626;28;20222;-66
2023/08/31 01:25:58;;;;;;;9.35;5.88;;;11.40;99.90;;;;;;2046839;28;20314;-66
2023/08/31 01:26:59;;;;;;;9.70;5.70;;;11.20;99.90;;;;;;2054525;28;20229;-66
2023/08/31 01:28:00;;;;;;;9.47;5.60;;;11.30;99.90;;;;;;2054258;28;20324;-66
2023/08/31 01:29:02;;;;;;;8.07;6.47;;;11.30;99.90;;;;;;2054586;28;20314;-66
2023/08/31 01:30:04;;;;;;;9.10;5.97;;;11.30;99.90;;;;;;2053388;28;20270;-67
2023/08/31 01:31:09;;;;;;;8.10;6.65;;;11.40;99.90;;;;;;2062731;28;20211;-66
2023/08/31 01:32:10;;;;;;;9.68;6.15;;;11.50;99.90;;;;;;2064311;28;20182;-67
2023/08/31 01:33:12;;;;;;;8.02;5.90;;;11.40;99.90;;;;;;2065119;28;20686;-66
2023/08/31 01:34:13;;;;;;;8.10;5.40;;;11.40;99.90;;;;;;2055828;28;20237;-66
2023/08/31 01:35:17;;;;;;;9.00;5.80;;;11.30;99.90;;;;;;2061508;28;20753;-66
2023/08/31 01:36:28;;;;;;;7.55;5.82;;;11.20;99.90;;;;;;2062577;28;20229;-66
2023/08/31 01:37:50;;;;;;;7.20;5.38;;;11.20;99.90;;;;;;2059850;28;20308;-68
2023/08/31 01:39:00;;;;;;;10.88;7.30;;;11.20;99.90;;;;;;2052103;28;20226;-66
2023/08/31 01:40:19;;;;;;;10.88;6.00;;;11.10;99.90;;;;;;2055710;28;20615;-66
2023/08/31 01:41:22;;;;;;;8.55;5.93;;;11.20;99.90;;;;;;2058404;28;20697;-66
2023/08/31 01:42:27;;;;;;;9.43;5.90;;;11.20;99.90;;;;;;2051916;28;20231;-68
2023/08/31 01:43:30;;;;;;;8.63;6.00;;;11.10;99.90;;;;;;2055190;28;20270;-66
2023/08/31 01:44:34;;;;;;;8.18;5.70;;;11.10;99.90;;;;;;2054257;28;20239;-66
2023/08/31 01:45:35;;;;;;;8.18;6.03;;;11.00;99.90;;;;;;2043019;28;20239;-66
2023/08/31 01:46:36;;;;;;;11.02;6.57;;;11.00;99.90;;;;;;2052063;28;20310;-66
2023/08/31 01:47:37;;;;;;;9.53;6.70;;;10.90;99.90;;;;;;2059782;28;20292;-66
2023/08/31 01:48:40;;;;;;;10.43;5.90;;;10.90;99.90;;;;;;2058715;28;20233;-66
2023/08/31 01:49:41;;;;;;;10.27;5.38;;;10.90;99.90;;;;;;2058618;28;20230;-66
2023/08/31 01:50:42;;;;;;;8.10;5.88;;;10.90;99.90;;;;;;2057681;28;20320;-66
2023/08/31 01:51:42;;;;;;;7.37;5.50;;;10.90;99.90;;;;;;2061368;28;20237;-66
2023/08/31 01:52:43;;;;;;;7.73;6.23;;;11.00;99.90;;;;;;2058267;28;20276;-66
2023/08/31 01:53:44;;;;;;;9.50;5.90;;;10.90;99.90;;;;;;2052815;28;20283;-66
2023/08/31 01:54:45;;;;;;;7.95;5.55;;;11.00;99.90;;;;;;2062295;28;20233;-67
2023/08/31 01:55:46;;;;;;;8.97;6.43;;;11.00;99.90;;;;;;2054231;28;20237;-66
2023/08/31 01:56:46;;;;;;;7.07;5.87;;;11.10;99.90;;;;;;2053672;28;20233;-66
2023/08/31 01:57:47;;;;;;;9.47;5.57;;;11.00;99.90;;;;;;2070469;28;20294;-67
2023/08/31 01:58:48;;;;;;;11.63;6.13;;;11.00;99.90;;;;;;2062364;28;20230;-66
2023/08/31 01:59:49;;;;;;;8.18;6.32;;;11.00;99.90;;;;;;2050311;28;20478;-67
2023/08/31 02:00:50;;;;;;;8.70;5.97;;;11.10;99.90;;;;;;2053743;28;20333;-66
2023/08/31 02:01:50;;;;;;;9.63;6.67;;;11.10;99.90;;;;;;2054417;28;20231;-66
2023/08/31 02:02:51;;;;;;;8.10;5.73;;;11.10;99.90;;;;;;2062126;28;20733;-66
2023/08/31 02:03:52;;;;;;;9.63;6.20;;;11.00;99.90;;;;;;2066404;28;20476;-66
2023/08/31 02:04:53;;;;;;;10.83;6.10;;;11.00;99.90;;;;;;2066323;28;20245;-66
2023/08/31 02:05:54;;;;;;;9.47;7.20;;;11.00;99.90;;;;;;2059950;28;20710;-66
2023/08/31 02:06:54;;;;;;;9.03;7.27;;;11.00;99.90;;;;;;2060236;28;20261;-67
2023/08/31 02:07:55;;;;;;;14.07;8.03;;;11.00;99.90;;;;;;2062920;28;20249;-67
2023/08/31 02:08:56;;;;;;;8.60;6.13;;;11.00;99.90;;;;;;2062295;28;20229;-66
2023/08/31 02:09:56;;;;;;;10.30;7.47;;;11.10;99.90;;;;;;2061879;28;20230;-67
2023/08/31 02:10:57;;;;;;;9.20;7.77;;;11.10;99.90;;;;;;2062195;28;20304;-66
2023/08/31 02:11:58;;;;;;;15.57;8.70;;;11.10;99.90;;;;;;2060248;28;20225;-66
2023/08/31 02:13:00;;;;;;;13.00;7.75;;;11.10;99.90;;;;;;2062571;28;20924;-66
2023/08/31 02:14:00;;;;;;;12.85;8.13;;;11.10;99.90;;;;;;2059422;28;20590;-67
2023/08/31 02:15:02;;;;;;;14.57;8.53;;;11.00;99.90;;;;;;2060865;28;20263;-66
2023/08/31 02:16:03;;;;;;;10.57;8.73;;;10.90;99.90;;;;;;2061467;28;20551;-68
2023/08/31 02:17:03;;;;;;;13.50;9.23;;;10.90;99.90;;;;;;2062973;28;20197;-68
2023/08/31 02:18:05;;;;;;;12.17;8.97;;;10.90;99.90;;;;;;2061995;28;20259;-67
2023/08/31 02:19:05;;;;;;;15.30;9.57;;;10.90;99.90;;;;;;2056929;28;20542;-66
2023/08/31 02:20:08;;;;;;;10.70;8.63;;;11.00;99.90;;;;;;2061153;28;20201;-67
2023/08/31 02:21:08;;;;;;;9.77;7.95;;;11.00;99.90;;;;;;2068241;28;20608;-67
2023/08/31 02:22:09;;;;;;;11.30;8.23;;;11.00;99.90;;;;;;2062417;28;20194;-66
2023/08/31 02:23:11;;;;;;;12.43;7.87;;;11.00;99.90;;;;;;2058787;28;20334;-67
2023/08/31 02:24:12;;;;;;;14.40;8.75;;;11.10;99.90;;;;;;2062980;28;20214;-66
2023/08/31 02:25:13;;;;;;;10.48;8.25;;;11.00;99.90;;;;;;2062516;28;20571;-67
2023/08/31 02:26:14;;;;;;;15.03;8.90;;;11.10;99.90;;;;;;2062639;28;20293;-67
2023/08/31 02:27:15;;;;;;;11.67;7.90;;;11.10;99.90;;;;;;2059477;28;20195;-67
2023/08/31 02:28:17;;;;;;;9.67;6.63;;;11.20;99.90;;;;;;2060618;28;20186;-66
2023/08/31 02:29:18;;;;;;;11.68;7.57;;;11.20;99.90;;;;;;2052443;28;20179;-67
2023/08/31 02:30:19;;;;;;;6.90;6.17;;;11.30;99.90;;;;;;2041077;28;20208;-67
2023/08/31 02:31:19;;;;;;;8.37;5.40;;;11.20;99.90;;;;;;2052270;28;20249;-67
2023/08/31 02:32:20;;;;;;;9.53;6.53;;;11.20;99.90;;;;;;2053268;28;20186;-67
2023/08/31 02:33:21;;;;;;;11.00;6.93;;;11.20;99.90;;;;;;2061837;28;20181;-67
2023/08/31 02:34:22;;;;;;;8.33;6.43;;;11.20;99.90;;;;;;2061732;28;21050;-66
2023/08/31 02:35:23;;;;;;;7.03;5.90;;;11.10;99.90;;;;;;2060038;28;20336;-67
2023/08/31 02:36:23;;;;;;;11.18;6.88;;;11.10;99.90;;;;;;2060397;28;20605;-66
2023/08/31 02:37:24;;;;;;;8.60;6.37;;;11.10;99.90;;;;;;2055112;28;20231;-67
2023/08/31 02:38:26;;;;;;;11.03;6.30;;;11.20;99.90;;;;;;2048622;28;20639;-66
2023/08/31 02:39:26;;;;;;;7.82;6.45;;;11.20;99.90;;;;;;2062638;28;20305;-66
2023/08/31 02:40:27;;;;;;;8.87;6.57;;;11.20;99.90;;;;;;2065129;28;20229;-66
2023/08/31 02:41:28;;;;;;;9.90;6.27;;;11.10;99.90;;;;;;2064961;28;20218;-66
2023/08/31 02:42:29;;;;;;;10.33;7.00;;;11.10;99.90;;;;;;2062919;28;20222;-67
2023/08/31 02:43:30;;;;;;;9.93;7.47;;;11.10;99.90;;;;;;2063025;28;20311;-67
2023/08/31 02:44:31;;;;;;;8.88;6.53;;;11.10;99.90;;;;;;2061629;28;20234;-67
2023/08/31 02:45:32;;;;;;;8.07;5.75;;;11.10;99.90;;;;;;2050314;28;20261;-67
2023/08/31 02:46:32;;;;;;;10.23;6.53;;;11.10;99.90;;;;;;2061276;28;20321;-66
2023/08/31 02:47:33;;;;;;;10.57;6.50;;;11.20;99.90;;;;;;2062355;28;20234;-67
2023/08/31 02:48:34;;;;;;;12.50;6.90;;;11.20;99.90;;;;;;2062076;28;20230;-67
2023/08/31 02:49:35;;;;;;;9.30;6.70;;;11.20;99.90;;;;;;2062187;28;20241;-67
2023/08/31 02:50:36;;;;;;;11.47;6.87;;;11.20;99.90;;;;;;2061538;28;20241;-67
2023/08/31 02:51:36;;;;;;;12.03;7.03;;;11.30;99.90;;;;;;2054267;28;20314;-67
2023/08/31 02:52:37;;;;;;;12.37;7.10;;;11.30;99.90;;;;;;2053937;28;20287;-67
2023/08/31 02:53:38;;;;;;;11.83;7.47;;;11.30;99.90;;;;;;2061397;28;20776;-67
2023/08/31 02:54:38;;;;;;;11.70;7.27;;;11.30;99.90;;;;;;2061278;28;20237;-66
2023/08/31 02:55:42;;;;;;;13.68;7.75;;;11.30;99.90;;;;;;2061152;28;20238;-67
2023/08/31 02:56:43;;;;;;;10.85;7.15;;;11.30;99.90;;;;;;2060006;28;20232;-66
2023/08/31 02:57:43;;;;;;;14.00;7.20;;;11.10;99.90;;;;;;2053890;28;20230;-66
2023/08/31 02:58:44;;;;;;;8.23;6.73;;;10.80;99.90;;;;;;2060358;28;20317;-66
2023/08/31 02:59:46;;;;;;;11.17;7.47;;;10.70;99.90;;;;;;2058922;28;20327;-67
2023/08/31 03:00:48;;;;;;;12.88;8.18;;;10.70;99.90;;;;;;2053497;28;20262;-66
2023/08/31 03:01:48;;;;;;;9.85;7.85;;;10.60;99.90;;;;;;2053775;28;20751;-66
2023/08/31 03:02:52;;;;;;;10.90;6.73;;;10.60;99.90;;;;;;2061610;28;20253;-66
2023/08/31 03:03:52;;;;;;;7.60;6.18;;;10.70;99.90;;;;;;2062187;28;20333;-66
2023/08/31 03:04:53;;;;;;;9.47;6.20;;;10.70;99.90;;;;;;2061971;28;20608;-66
2023/08/31 03:05:56;;;;;;;12.20;6.83;;;10.70;99.90;;;;;;2053290;28;20263;-67
2023/08/31 03:06:57;;;;;;;10.35;6.90;;;10.80;99.90;;;;;;2054148;28;20305;-66
2023/08/31 03:07:58;;;;;;;11.07;6.90;;;10.80;99.90;;;;;;2070412;28;20303;-66
2023/08/31 03:08:58;;;;;;;13.13;7.57;;;10.80;99.90;;;;;;2055116;28;20472;-66
2023/08/31 03:09:59;;;;;;;13.17;8.67;;;10.80;99.90;;;;;;2047742;28;20231;-67
2023/08/31 03:11:00;;;;;;;7.97;6.33;;;10.80;99.90;;;;;;2059567;28;20627;-66
2023/08/31 03:12:01;;;;;;;9.27;6.60;;;10.70;99.90;;;;;;2063696;28;20226;-66
2023/08/31 03:13:01;;;;;;;13.40;7.73;;;10.80;99.90;;;;;;2063916;28;20229;-68
2023/08/31 03:14:02;;;;;;;10.17;6.37;;;10.70;99.90;;;;;;2062298;28;20272;-68
2023/08/31 03:15:05;;;;;;;8.43;5.10;;;10.80;99.90;;;;;;2062994;28;20209;-67
2023/08/31 03:16:07;;;;;;;6.60;5.05;;;10.70;99.90;;;;;;2064225;28;20301;-66
2023/08/31 03:17:08;;;;;;;7.50;6.20;;;10.60;99.90;;;;;;2063911;28;20182;-67
2023/08/31 03:18:08;;;;;;;12.83;7.40;;;10.50;99.90;;;;;;2060890;28;20191;-66
2023/08/31 03:19:09;;;;;;;10.73;7.37;;;10.50;99.90;;;;;;2062887;28;20202;-67
2023/08/31 03:20:10;;;;;;;13.40;7.67;;;10.40;99.90;;;;;;2064082;28;20201;-67
2023/08/31 03:21:11;;;;;;;15.10;8.20;;;10.40;99.90;;;;;;2063658;28;20216;-66
2023/08/31 03:22:12;;;;;;;11.17;7.43;;;10.40;99.90;;;;;;2063600;28;20677;-66
2023/08/31 03:23:12;;;;;;;17.33;8.53;;;10.40;99.90;;;;;;2063851;28;20186;-67
2023/08/31 03:24:13;;;;;;;47.37;9.80;;;10.30;99.90;;;;;;2063668;28;20655;-66
2023/08/31 03:25:14;;;;;;;18.60;8.33;;;10.30;99.90;;;;;;2063644;28;20170;-66
2023/08/31 03:26:14;;;;;;;11.73;7.97;;;10.40;99.90;;;;;;2061547;28;20603;-66
2023/08/31 03:27:20;;;;;;;25.63;10.23;;;10.30;99.90;;;;;;2063035;28;20192;-66
2023/08/31 03:28:20;;;;;;;16.73;8.80;;;10.40;99.90;;;;;;2063201;28;20178;-66
2023/08/31 03:29:21;;;;;;;16.60;9.27;;;10.40;99.90;;;;;;2063360;28;20187;-66
2023/08/31 03:30:22;;;;;;;32.17;9.00;;;10.40;99.90;;;;;;2055173;28;20233;-67
2023/08/31 03:31:22;;;;;;;28.07;9.90;;;10.50;99.90;;;;;;2055017;28;20286;-66
2023/08/31 03:32:23;;;;;;;22.40;9.17;;;10.40;99.90;;;;;;2049673;28;20223;-66
2023/08/31 03:33:24;;;;;;;19.90;9.77;;;10.40;99.90;;;;;;2055120;28;20276;-67
2023/08/31 03:34:30;;;;;;;14.37;8.40;;;10.50;99.90;;;;;;2071044;28;20228;-66
2023/08/31 03:35:32;;;;;;;11.60;7.80;;;10.40;99.90;;;;;;2063258;28;20225;-67
2023/08/31 03:36:33;;;;;;;16.27;8.63;;;10.40;99.90;;;;;;2054957;28;20230;-67
2023/08/31 03:37:34;;;;;;;29.33;9.80;;;10.50;99.90;;;;;;2063539;28;20230;-67
2023/08/31 03:38:37;;;;;;;18.20;10.30;;;10.40;99.90;;;;;;2062788;28;20610;-67
2023/08/31 03:39:38;;;;;;;37.90;11.35;;;10.40;99.90;;;;;;2062762;28;20225;-67
2023/08/31 03:40:38;;;;;;;28.40;8.83;;;10.50;99.90;;;;;;2070507;28;20654;-67
2023/08/31 03:41:39;;;;;;;35.70;10.03;;;10.50;99.90;;;;;;2071104;28;20224;-66
2023/08/31 03:42:40;;;;;;;34.23;9.73;;;10.50;99.90;;;;;;2070501;28;20652;-67
2023/08/31 03:43:41;;;;;;;55.70;11.93;;;10.50;99.90;;;;;;2048007;28;20382;-67
2023/08/31 03:44:42;;;;;;;76.07;13.70;;;10.60;99.90;;;;;;2043175;28;20728;-67
2023/08/31 03:45:42;;;;;;;93.75;11.88;;;10.60;99.90;;;;;;2063065;28;20690;-67
2023/08/31 03:46:43;;;;;;;107.87;10.13;;;10.60;99.90;;;;;;2060523;28;20230;-67
2023/08/31 03:47:44;;;;;;;100.00;12.93;;;10.60;99.90;;;;;;2062987;28;20777;-67
2023/08/31 03:48:45;;;;;;;105.80;12.27;;;10.60;99.90;;;;;;2063207;28;20234;-67
2023/08/31 03:49:45;;;;;;;67.53;11.50;;;10.60;99.90;;;;;;2064011;28;20234;-67
2023/08/31 03:50:51;;;;;;;49.87;9.00;;;10.60;99.90;;;;;;2061090;28;20581;-67
2023/08/31 03:51:53;;;;;;;84.57;12.90;;;10.70;99.90;;;;;;2059686;28;20236;-67
2023/08/31 03:52:54;;;;;;;68.47;10.93;;;10.70;99.90;;;;;;2062047;28;20234;-67
2023/08/31 03:53:56;;;;;;;72.87;11.40;;;10.70;99.90;;;;;;2062108;28;20233;-67
2023/08/31 03:54:57;;;;;;;84.43;11.82;;;10.70;99.90;;;;;;2055173;28;20218;-67
2023/08/31 03:55:58;;;;;;;99.10;13.90;;;10.60;99.90;;;;;;2054497;28;20230;-67
2023/08/31 03:56:58;;;;;;;82.70;11.47;;;10.60;99.90;;;;;;2050882;28;20234;-67
2023/08/31 03:57:59;;;;;;;80.23;11.97;;;10.60;99.90;;;;;;2062980;28;20239;-67
2023/08/31 03:59:05;;;;;;;53.20;10.50;;;10.60;99.90;;;;;;2062774;28;20229;-66
2023/08/31 04:00:12;;;;;;;59.70;10.48;;;10.70;99.90;;;;;;2061309;28;20230;-67
2023/08/31 04:01:14;;;;;;;94.90;12.25;;;10.70;99.90;;;;;;2065824;28;20665;-67
2023/08/31 04:02:15;;;;;;;56.25;10.10;;;10.80;99.90;;;;;;2063517;28;20193;-67
2023/08/31 04:03:15;;;;;;;25.27;8.37;;;10.80;99.90;;;;;;2063397;28;20189;-67
2023/08/31 04:04:16;;;;;;;36.27;9.60;;;10.80;99.90;;;;;;2062262;28;20247;-67
2023/08/31 04:05:17;;;;;;;36.13;9.57;;;10.80;99.90;;;;;;2050831;28;20188;-67
2023/08/31 04:06:17;;;;;;;23.60;8.87;;;10.70;99.90;;;;;;2055062;28;20186;-67
2023/08/31 04:07:18;;;;;;;21.43;10.07;;;10.70;99.90;;;;;;2067463;28;20255;-67
2023/08/31 04:08:19;;;;;;;19.93;8.80;;;10.70;99.90;;;;;;2069777;28;20197;-67
2023/08/31 04:09:20;;;;;;;10.30;7.17;;;10.70;99.90;;;;;;2063331;28;20248;-67
2023/08/31 04:10:21;;;;;;;7.63;6.20;;;10.70;99.90;;;;;;2063100;28;20602;-67
2023/08/31 04:11:22;;;;;;;6.13;5.37;;;10.70;99.90;;;;;;2063189;28;20731;-67
2023/08/31 04:12:23;;;;;;;6.90;5.40;;;10.70;99.90;;;;;;2054674;28;20238;-67
2023/08/31 04:13:23;;;;;;;6.57;5.43;;;10.70;99.90;;;;;;2044327;28;20227;-67
2023/08/31 04:14:27;;;;;;;5.77;5.27;;;10.70;99.90;;;;;;2052298;28;20237;-67
2023/08/31 04:15:28;;;;;;;6.20;4.75;;;10.80;99.90;;;;;;2064208;28;20236;-67
2023/08/31 04:16:28;;;;;;;5.30;4.80;;;10.70;99.90;;;;;;2064819;28;20230;-67
2023/08/31 04:17:29;;;;;;;6.77;5.90;;;10.70;99.90;;;;;;2064564;28;20233;-67
2023/08/31 04:18:30;;;;;;;10.07;6.63;;;10.70;99.90;;;;;;2054367;28;20313;-67
2023/08/31 04:19:30;;;;;;;8.63;6.17;;;10.60;99.90;;;;;;2053654;28;20227;-67
2023/08/31 04:20:33;;;;;;;9.83;6.20;;;10.60;99.90;;;;;;2057126;28;20226;-67
2023/08/31 04:21:34;;;;;;;7.78;5.70;;;10.60;99.90;;;;;;2062656;28;20236;-67
2023/08/31 04:22:35;;;;;;;6.30;5.70;;;10.60;99.90;;;;;;2062462;28;20496;-67
2023/08/31 04:23:35;;;;;;;5.80;5.20;;;10.60;99.90;;;;;;2062592;28;20691;-67
2023/08/31 04:24:36;;;;;;;9.27;6.13;;;10.60;99.90;;;;;;2054443;28;20235;-67
2023/08/31 04:25:38;;;;;;;8.07;6.07;;;10.50;99.90;;;;;;2061577;28;20229;-67
2023/08/31 04:26:38;;;;;;;8.25;6.53;;;10.50;99.90;;;;;;2062746;28;20228;-67
2023/08/31 04:27:40;;;;;;;7.00;6.07;;;10.60;99.90;;;;;;2058626;28;20707;-67
2023/08/31 04:28:42;;;;;;;7.50;6.03;;;10.50;99.90;;;;;;2061540;28;20226;-67
2023/08/31 04:29:42;;;;;;;7.50;6.53;;;10.50;99.90;;;;;;2051615;28;20230;-68
2023/08/31 04:30:44;;;;;;;9.47;6.30;;;10.50;99.90;;;;;;2053796;28;20278;-67
2023/08/31 04:31:45;;;;;;;6.72;5.85;;;10.50;99.90;;;;;;2063543;28;20238;-67
2023/08/31 04:32:46;;;;;;;10.23;6.27;;;10.50;99.90;;;;;;2063176;28;20244;-67
2023/08/31 04:33:48;;;;;;;7.50;6.20;;;10.50;99.90;;;;;;2054863;28;20226;-67
2023/08/31 04:34:48;;;;;;;9.27;6.55;;;10.50;99.90;;;;;;2054493;28;20257;-67
2023/08/31 04:35:49;;;;;;;6.20;5.60;;;10.50;99.90;;;;;;2061757;28;20240;-67
2023/08/31 04:36:50;;;;;;;8.90;5.33;;;10.50;99.90;;;;;;2070708;28;20815;-67
2023/08/31 04:37:50;;;;;;;6.40;4.97;;;10.50;99.90;;;;;;2070178;28;20260;-67
2023/08/31 04:38:51;;;;;;;6.80;5.80;;;10.40;99.90;;;;;;2060162;28;20654;-67
2023/08/31 04:39:52;;;;;;;6.63;5.40;;;10.30;99.90;;;;;;2053843;28;20242;-66
2023/08/31 04:40:53;;;;;;;6.80;5.70;;;10.20;99.90;;;;;;2060992;28;20242;-67
2023/08/31 04:41:53;;;;;;;5.73;4.90;;;10.20;99.90;;;;;;2060024;28;20655;-67
2023/08/31 04:42:54;;;;;;;7.50;5.93;;;10.30;99.90;;;;;;2061010;28;20237;-67
2023/08/31 04:43:55;;;;;;;6.77;5.80;;;10.30;99.90;;;;;;2062319;28;20237;-66
2023/08/31 04:44:56;;;;;;;6.80;6.10;;;10.30;99.90;;;;;;2062422;28;20556;-66
2023/08/31 04:45:57;;;;;;;6.50;5.90;;;10.50;99.90;;;;;;2061977;28;20692;-67
2023/08/31 04:46:57;;;;;;;6.53;5.80;;;10.50;99.90;;;;;;2054556;28;20218;-67
2023/08/31 04:47:58;;;;;;;8.60;6.77;;;10.60;99.90;;;;;;2054996;28;20229;-67
2023/08/31 04:48:59;;;;;;;11.10;6.87;;;10.60;99.90;;;;;;2057585;28;20238;-67
2023/08/31 04:50:00;;;;;;;7.47;6.67;;;10.60;99.90;;;;;;2058500;28;20258;-67
2023/08/31 04:51:00;;;;;;;7.10;5.90;;;10.50;99.90;;;;;;2062244;28;20617;-67
2023/08/31 04:52:01;;;;;;;7.03;6.33;;;10.60;99.90;;;;;;2062202;28;20226;-67
2023/08/31 04:53:02;;;;;;;6.87;5.97;;;10.60;99.90;;;;;;2060478;28;20258;-70
2023/08/31 04:54:03;;;;;;;6.70;6.00;;;10.70;99.90;;;;;;2061882;28;20253;-68
2023/08/31 04:55:10;;;;;;;6.97;5.97;;;10.70;99.90;;;;;;2061567;28;20210;-67
2023/08/31 04:56:11;;;;;;;9.23;6.47;;;10.70;99.90;;;;;;2061979;28;20186;-67
2023/08/31 04:57:11;;;;;;;8.83;5.93;;;10.70;99.90;;;;;;2054447;28;20298;-67
2023/08/31 04:58:12;;;;;;;9.67;6.00;;;10.70;99.90;;;;;;2062382;28;20646;-67
2023/08/31 04:59:13;;;;;;;7.60;5.90;;;10.80;99.90;;;;;;2062644;28;20197;-67
2023/08/31 05:00:14;;;;;;;6.73;5.93;;;10.90;99.90;;;;;;2062105;28;20714;-67
2023/08/31 05:01:15;;;;;;;7.78;6.20;;;10.90;99.90;;;;;;2062214;28;20444;-67
2023/08/31 05:02:17;;;;;;;8.45;6.82;;;10.80;99.90;;;;;;2062932;28;20183;-67
2023/08/31 05:03:17;;;;;;;6.82;6.13;;;10.80;99.90;;;;;;2062330;28;20706;-66
2023/08/31 05:04:18;;;;;;;7.37;6.17;;;10.80;99.90;;;;;;2058500;28;20190;-67
2023/08/31 05:05:19;;;;;;;8.77;7.07;;;10.80;99.90;;;;;;2056224;28;20182;-67
2023/08/31 05:06:20;;;;;;;7.63;6.30;;;10.90;99.90;;;;;;2055543;28;20190;-67
2023/08/31 05:07:20;;;;;;;7.87;5.97;;;10.80;99.90;;;;;;2070003;28;20185;-67
2023/08/31 05:08:21;;;;;;;7.03;6.33;;;10.80;99.90;;;;;;2061780;28;20729;-67
2023/08/31 05:09:26;;;;;;;9.97;5.93;;;10.80;99.90;;;;;;2058199;28;20241;-66
2023/08/31 05:10:27;;;;;;;8.63;5.85;;;10.80;99.90;;;;;;2062998;28;20222;-67
2023/08/31 05:11:28;;;;;;;6.77;5.90;;;10.90;99.90;;;;;;2063694;28;20225;-67
2023/08/31 05:12:28;;;;;;;6.27;5.40;;;10.90;99.90;;;;;;2062114;28;20313;-67
2023/08/31 05:13:29;;;;;;;9.27;6.00;;;10.80;99.90;;;;;;2062095;28;20668;-67
2023/08/31 05:14:30;;;;;;;6.40;5.47;;;10.80;99.90;;;;;;2053234;28;20315;-67
2023/08/31 05:15:33;;;;;;;9.60;6.57;;;10.90;99.90;;;;;;2054808;28;20301;-67
2023/08/31 05:16:34;;;;;;;7.82;5.68;;;11.00;99.90;;;;;;2069786;28;20244;-67
2023/08/31 05:17:35;;;;;;;7.77;6.30;;;11.00;99.90;;;;;;2066511;28;20229;-67
2023/08/31 05:18:37;;;;;;;10.67;7.10;;;11.20;99.90;;;;;;2061891;28;20229;-67
2023/08/31 05:19:37;;;;;;;8.63;6.65;;;11.10;99.90;;;;;;2062130;28;20230;-67
2023/08/31 05:20:38;;;;;;;8.40;6.20;;;11.20;99.90;;;;;;2061434;28;20234;-67
2023/08/31 05:21:39;;;;;;;6.03;5.00;;;11.30;99.90;;;;;;2046085;28;20270;-67
2023/08/31 05:22:39;;;;;;;5.97;5.03;;;11.30;99.90;;;;;;2053531;28;20352;-67
2023/08/31 05:23:40;;;;;;;8.13;5.37;;;11.30;99.90;;;;;;2062836;28;20233;-67